createdAt,value
2023-01-13T00:00:56.732Z,76.99
2023-01-13T00:01:56.740Z,76.99
2023-01-13T00:02:56.699Z,77.09
2023-01-13T00:03:56.693Z,77.09
2023-01-13T00:04:56.744Z,77.29
2023-01-13T00:05:56.698Z,77.09
2023-01-13T00:06:56.659Z,77.09
2023-01-13T00:07:56.632Z,77.09
2023-01-13T00:08:56.641Z,77.09
2023-01-13T00:09:56.614Z,76.99
2023-01-13T00:10:56.611Z,76.89
2023-01-13T00:11:56.589Z,76.65
2023-01-13T00:12:56.584Z,76.95
2023-01-13T00:13:56.562Z,76.65
2023-01-13T00:14:56.551Z,76.54
2023-01-13T00:15:56.597Z,76.54
2023-01-13T00:16:56.546Z,76.85
2023-01-13T00:17:56.520Z,76.54
2023-01-13T00:18:56.510Z,76.75
2023-01-13T00:19:56.492Z,76.85
2023-01-13T00:20:56.486Z,76.85
2023-01-13T00:21:56.464Z,76.75
2023-01-13T00:22:56.465Z,76.85
2023-01-13T00:23:56.468Z,76.99
2023-01-13T00:24:56.428Z,77.20
2023-01-13T00:25:56.428Z,76.89
2023-01-13T00:26:56.400Z,76.89
2023-01-13T00:27:56.395Z,76.65
2023-01-13T00:28:56.367Z,76.65
2023-01-13T00:29:56.351Z,76.85
2023-01-13T00:30:56.473Z,76.95
2023-01-13T00:31:56.353Z,76.99
2023-01-13T00:32:56.335Z,76.99
2023-01-13T00:33:56.332Z,76.85
2023-01-13T00:34:56.317Z,76.75
2023-01-13T00:35:56.285Z,76.65
2023-01-13T00:36:56.282Z,76.85
2023-01-13T00:37:56.393Z,76.89
2023-01-13T00:38:56.259Z,76.95
2023-01-13T00:39:56.232Z,76.75
2023-01-13T00:40:56.213Z,76.54
2023-01-13T00:41:56.251Z,76.65
2023-01-13T00:42:56.189Z,76.54
2023-01-13T00:43:56.175Z,76.75
2023-01-13T00:44:56.166Z,76.95
2023-01-13T00:45:56.156Z,76.75
2023-01-13T00:46:56.144Z,76.65
2023-01-13T00:47:56.116Z,76.85
2023-01-13T00:48:56.120Z,76.54
2023-01-13T00:49:56.102Z,76.44
2023-01-13T00:50:56.084Z,76.44
2023-01-13T00:51:56.086Z,76.44
2023-01-13T00:52:56.077Z,76.54
2023-01-13T00:53:56.055Z,76.75
2023-01-13T00:54:56.043Z,76.75
2023-01-13T00:55:56.014Z,76.44
2023-01-13T00:56:56.020Z,76.65
2023-01-13T00:57:56.011Z,76.75
2023-01-13T00:58:55.985Z,76.54
2023-01-13T00:59:55.973Z,76.85
2023-01-13T01:00:56.005Z,76.75
2023-01-13T01:01:56.073Z,77.06
2023-01-13T01:02:55.916Z,76.85
2023-01-13T01:03:55.927Z,76.85
2023-01-13T01:04:55.909Z,76.65
2023-01-13T01:05:55.890Z,76.44
2023-01-13T01:06:55.902Z,76.44
2023-01-13T01:07:55.881Z,76.65
2023-01-13T01:08:55.893Z,76.44
2023-01-13T01:09:55.830Z,76.54
2023-01-13T01:10:55.824Z,76.54
2023-01-13T01:11:55.837Z,76.44
2023-01-13T01:12:55.784Z,76.24
2023-01-13T01:13:55.778Z,76.54
2023-01-13T01:14:55.777Z,76.34
2023-01-13T01:15:55.829Z,76.24
2023-01-13T01:16:55.760Z,76.44
2023-01-13T01:17:55.735Z,76.44
2023-01-13T01:19:03.231Z,76.44
2023-01-13T01:19:55.714Z,76.54
2023-01-13T01:20:55.690Z,76.54
2023-01-13T01:21:55.702Z,76.54
2023-01-13T01:22:55.666Z,76.54
2023-01-13T01:24:03.168Z,76.44
2023-01-13T01:24:55.645Z,76.34
2023-01-13T01:26:03.138Z,76.34
2023-01-13T01:26:55.622Z,76.34
2023-01-13T01:27:55.601Z,76.44
2023-01-13T01:29:04.271Z,76.44
2023-01-13T01:29:55.591Z,76.65
2023-01-13T01:31:03.128Z,76.44
2023-01-13T01:31:55.566Z,76.44
2023-01-13T01:32:55.558Z,76.65
2023-01-13T01:33:55.554Z,76.44
2023-01-13T01:34:55.518Z,76.34
2023-01-13T01:35:55.498Z,76.65
2023-01-13T01:36:55.508Z,76.44
2023-01-13T01:37:55.497Z,76.44
2023-01-13T01:38:55.474Z,76.44
2023-01-13T01:39:55.456Z,76.44
2023-01-13T01:40:55.430Z,76.44
2023-01-13T01:41:55.419Z,76.65
2023-01-13T01:42:55.472Z,76.54
2023-01-13T01:43:55.396Z,76.44
2023-01-13T01:44:55.392Z,76.24
2023-01-13T01:45:55.369Z,76.44
2023-01-13T01:46:55.423Z,76.65
2023-01-13T01:47:55.366Z,76.44
2023-01-13T01:48:55.330Z,76.54
2023-01-13T01:49:55.327Z,76.54
2023-01-13T01:50:55.304Z,76.34
2023-01-13T01:51:55.290Z,76.44
2023-01-13T01:52:55.290Z,76.34
2023-01-13T01:53:55.283Z,76.34
2023-01-13T01:54:55.259Z,76.44
2023-01-13T01:55:55.237Z,76.34
2023-01-13T01:56:55.220Z,76.34
2023-01-13T01:57:55.225Z,76.34
2023-01-13T01:58:55.200Z,76.85
2023-01-13T01:59:55.193Z,76.44
2023-01-13T02:00:55.243Z,76.44
2023-01-13T02:01:55.258Z,76.65
2023-01-13T02:02:55.192Z,76.54
2023-01-13T02:03:55.156Z,76.44
2023-01-13T02:04:55.139Z,76.54
2023-01-13T02:05:55.119Z,76.65
2023-01-13T02:06:55.102Z,76.54
2023-01-13T02:07:55.114Z,76.54
2023-01-13T02:08:55.071Z,76.85
2023-01-13T02:09:55.060Z,76.75
2023-01-13T02:10:55.065Z,76.65
2023-01-13T02:11:55.039Z,76.85
2023-01-13T02:12:55.041Z,77.06
2023-01-13T02:13:55.011Z,77.09
2023-01-13T02:14:55.012Z,77.20
2023-01-13T02:15:54.983Z,77.20
2023-01-13T02:16:54.983Z,77.29
2023-01-13T02:17:54.994Z,77.20
2023-01-13T02:18:54.953Z,77.29
2023-01-13T02:19:54.943Z,77.40
2023-01-13T02:20:54.941Z,77.40
2023-01-13T02:21:54.942Z,77.40
2023-01-13T02:22:54.919Z,77.40
2023-01-13T02:23:54.884Z,77.50
2023-01-13T02:24:54.941Z,77.50
2023-01-13T02:25:54.884Z,77.40
2023-01-13T02:26:54.845Z,77.29
2023-01-13T02:27:54.853Z,77.36
2023-01-13T02:28:54.835Z,77.47
2023-01-13T02:29:54.823Z,77.36
2023-01-13T02:30:54.807Z,77.06
2023-01-13T02:31:54.803Z,77.06
2023-01-13T02:32:54.782Z,77.06
2023-01-13T02:33:54.785Z,77.06
2023-01-13T02:34:54.750Z,76.95
2023-01-13T02:35:54.745Z,76.95
2023-01-13T02:36:54.717Z,77.06
2023-01-13T02:37:54.714Z,77.06
2023-01-13T02:38:54.715Z,76.95
2023-01-13T02:39:54.678Z,77.16
2023-01-13T02:40:54.665Z,76.95
2023-01-13T02:41:54.660Z,77.06
2023-01-13T02:42:54.653Z,76.95
2023-01-13T02:43:54.649Z,76.95
2023-01-13T02:44:54.625Z,76.95
2023-01-13T02:45:54.699Z,77.06
2023-01-13T02:46:54.588Z,77.06
2023-01-13T02:47:54.585Z,77.26
2023-01-13T02:48:54.576Z,77.26
2023-01-13T02:49:54.565Z,77.26
2023-01-13T02:50:54.538Z,77.57
2023-01-13T02:51:54.538Z,77.61
2023-01-13T02:52:54.518Z,77.71
2023-01-13T02:53:54.507Z,77.71
2023-01-13T02:54:54.498Z,77.81
2023-01-13T02:55:54.480Z,77.91
2023-01-13T02:56:54.481Z,77.81
2023-01-13T02:57:54.454Z,77.61
2023-01-13T02:58:54.447Z,77.50
2023-01-13T02:59:54.369Z,77.61
2023-01-13T03:00:54.443Z,77.50
2023-01-13T03:01:54.467Z,77.40
2023-01-13T03:02:54.341Z,77.50
2023-01-13T03:03:54.314Z,77.61
2023-01-13T03:04:54.297Z,77.29
2023-01-13T03:05:54.261Z,77.40
2023-01-13T03:06:54.256Z,77.40
2023-01-13T03:07:54.253Z,77.29
2023-01-13T03:08:54.238Z,77.29
2023-01-13T03:09:54.265Z,77.50
2023-01-13T03:10:54.202Z,77.40
2023-01-13T03:11:54.202Z,77.29
2023-01-13T03:12:54.180Z,77.61
2023-01-13T03:13:54.177Z,77.40
2023-01-13T03:14:54.158Z,77.40
2023-01-13T03:15:54.153Z,77.61
2023-01-13T03:16:54.193Z,77.81
2023-01-13T03:17:54.108Z,77.50
2023-01-13T03:18:54.133Z,77.50
2023-01-13T03:19:54.087Z,77.71
2023-01-13T03:20:54.068Z,77.61
2023-01-13T03:21:54.067Z,77.50
2023-01-13T03:22:54.053Z,77.71
2023-01-13T03:23:54.057Z,77.61
2023-01-13T03:24:54.020Z,77.61
2023-01-13T03:25:54.008Z,77.50
2023-01-13T03:26:53.994Z,77.50
2023-01-13T03:27:53.990Z,77.40
2023-01-13T03:28:53.981Z,77.20
2023-01-13T03:29:53.959Z,77.20
2023-01-13T03:30:54.003Z,77.29
2023-01-13T03:31:53.939Z,77.50
2023-01-13T03:32:53.939Z,77.29
2023-01-13T03:33:53.940Z,77.40
2023-01-13T03:34:53.908Z,77.29
2023-01-13T03:35:53.980Z,77.40
2023-01-13T03:36:53.861Z,77.29
2023-01-13T03:37:53.859Z,77.29
2023-01-13T03:38:53.840Z,77.29
2023-01-13T03:39:53.872Z,77.29
2023-01-13T03:40:53.820Z,77.29
2023-01-13T03:41:53.808Z,77.40
2023-01-13T03:42:53.790Z,77.61
2023-01-13T03:43:53.774Z,77.61
2023-01-13T03:44:53.772Z,77.50
2023-01-13T03:45:53.844Z,77.50
2023-01-13T03:46:53.739Z,77.40
2023-01-13T03:47:53.720Z,77.50
2023-01-13T03:48:53.712Z,77.50
2023-01-13T03:49:53.733Z,77.61
2023-01-13T04:03:30.249Z,77.91
2023-01-13T04:04:30.192Z,77.91
2023-01-13T04:05:30.204Z,77.61
2023-01-13T04:06:30.174Z,77.61
2023-01-13T04:07:30.165Z,77.71
2023-01-13T04:08:30.142Z,77.71
2023-01-13T04:09:30.132Z,77.71
2023-01-13T04:10:30.169Z,77.61
2023-01-13T04:11:30.136Z,77.71
2023-01-13T04:12:30.100Z,78.02
2023-01-13T04:13:30.144Z,77.91
2023-01-13T04:14:30.075Z,77.81
2023-01-13T04:15:30.156Z,77.91
2023-01-13T04:16:30.052Z,77.81
2023-01-13T04:17:30.035Z,77.91
2023-01-13T04:18:30.045Z,77.91
2023-01-13T04:19:30.026Z,78.02
2023-01-13T04:20:30.115Z,78.02
2023-01-13T04:21:29.986Z,78.02
2023-01-13T04:22:29.987Z,78.02
2023-01-13T04:23:29.966Z,77.77
2023-01-13T04:24:29.935Z,77.91
2023-01-13T04:25:29.955Z,77.77
2023-01-13T04:26:29.941Z,78.08
2023-01-13T04:27:29.910Z,78.19
2023-01-13T04:28:29.895Z,78.02
2023-01-13T04:29:29.909Z,78.08
2023-01-13T04:30:29.876Z,78.12
2023-01-13T04:31:29.877Z,78.22
2023-01-13T04:32:29.846Z,78.22
2023-01-13T04:33:29.848Z,78.22
2023-01-13T04:34:29.807Z,78.22
2023-01-13T04:35:29.815Z,78.32
2023-01-13T04:36:29.797Z,78.12
2023-01-13T04:37:29.792Z,78.22
2023-01-13T04:38:29.769Z,77.98
2023-01-13T04:39:29.746Z,77.98
2023-01-13T04:40:29.742Z,78.08
2023-01-13T04:41:29.730Z,78.28
2023-01-13T04:42:29.738Z,77.98
2023-01-13T04:43:29.700Z,78.08
2023-01-13T04:44:29.700Z,78.19
2023-01-13T04:45:29.697Z,78.28
2023-01-13T04:46:29.752Z,78.32
2023-01-13T04:47:29.656Z,78.53
2023-01-13T04:48:29.648Z,78.63
2023-01-13T04:49:29.622Z,78.63
2023-01-13T04:50:29.635Z,78.53
2023-01-13T04:51:29.606Z,78.53
2023-01-13T04:52:29.601Z,78.63
2023-01-13T04:53:29.578Z,78.94
2023-01-13T04:54:29.563Z,78.83
2023-01-13T04:55:29.556Z,78.94
2023-01-13T04:56:29.520Z,78.94
2023-01-13T04:57:29.520Z,78.94
2023-01-13T04:58:29.501Z,79.04
2023-01-13T04:59:29.517Z,79.14
2023-01-13T05:00:29.470Z,78.94
2023-01-13T05:01:29.542Z,79.14
2023-01-13T05:02:29.460Z,79.14
2023-01-13T05:03:29.445Z,79.24
2023-01-13T05:04:29.464Z,79.14
2023-01-13T05:05:29.427Z,79.24
2023-01-13T05:06:29.438Z,79.35
2023-01-13T05:07:29.395Z,79.45
2023-01-13T05:08:29.361Z,79.45
2023-01-13T05:09:29.351Z,79.55
2023-01-13T05:10:29.346Z,79.66
2023-01-13T05:11:29.362Z,79.66
2023-01-13T05:12:29.354Z,79.96
2023-01-13T05:13:29.329Z,79.75
2023-01-13T05:14:29.282Z,79.69
2023-01-13T05:15:29.298Z,79.69
2023-01-13T05:16:29.296Z,79.80
2023-01-13T05:17:29.260Z,79.80
2023-01-13T05:18:29.245Z,79.80
2023-01-13T05:19:29.223Z,79.80
2023-01-13T05:20:29.226Z,79.80
2023-01-13T05:21:29.236Z,79.80
2023-01-13T05:22:29.179Z,79.90
2023-01-13T05:23:29.176Z,79.90
2023-01-13T05:24:29.181Z,80.00
2023-01-13T05:25:29.143Z,80.21
2023-01-13T05:26:29.135Z,80.21
2023-01-13T05:27:29.117Z,80.00
2023-01-13T05:28:29.128Z,80.10
2023-01-13T05:29:29.101Z,80.00
2023-01-13T05:30:29.081Z,80.00
2023-01-13T05:31:29.159Z,80.10
2023-01-13T05:32:29.054Z,80.31
2023-01-13T05:33:29.066Z,80.31
2023-01-13T05:34:29.033Z,80.31
2023-01-13T05:35:29.014Z,80.10
2023-01-13T05:36:29.006Z,80.10
2023-01-13T05:37:28.985Z,80.00
2023-01-13T05:38:28.967Z,80.10
2023-01-13T05:39:28.968Z,80.10
2023-01-13T05:40:28.948Z,80.41
2023-01-13T05:41:28.945Z,80.51
2023-01-13T05:42:28.924Z,80.21
2023-01-13T05:43:28.922Z,80.41
2023-01-13T05:44:28.896Z,80.41
2023-01-13T05:45:28.878Z,80.51
2023-01-13T05:46:28.929Z,80.51
2023-01-13T05:47:28.856Z,80.51
2023-01-13T05:48:28.840Z,80.51
2023-01-13T05:49:28.818Z,80.51
2023-01-13T05:50:28.812Z,80.62
2023-01-13T05:51:28.864Z,80.62
2023-01-13T05:52:28.781Z,80.51
2023-01-13T05:53:28.785Z,80.51
2023-01-13T05:54:28.774Z,80.72
2023-01-13T05:55:28.739Z,80.82
2023-01-13T05:56:28.736Z,80.82
2023-01-13T05:57:28.717Z,80.82
2023-01-13T05:58:28.719Z,80.72
2023-01-13T05:59:28.707Z,80.51
2023-01-13T06:00:28.683Z,80.51
2023-01-13T06:01:28.711Z,80.62
2023-01-13T06:02:28.649Z,80.62
2023-01-13T06:03:28.648Z,80.62
2023-01-13T06:04:28.686Z,80.72
2023-01-13T06:05:28.623Z,80.72
2023-01-13T06:06:28.619Z,80.62
2023-01-13T06:07:28.605Z,80.62
2023-01-13T06:08:28.578Z,80.51
2023-01-13T06:09:28.570Z,80.62
2023-01-13T06:10:28.539Z,80.62
2023-01-13T06:11:28.549Z,80.62
2023-01-13T06:12:28.532Z,80.62
2023-01-13T06:13:28.517Z,80.41
2023-01-13T06:14:28.513Z,80.51
2023-01-13T06:15:28.504Z,80.37
2023-01-13T06:16:28.500Z,80.51
2023-01-13T06:17:28.451Z,80.62
2023-01-13T06:18:28.469Z,80.51
2023-01-13T06:19:28.452Z,80.41
2023-01-13T06:20:28.421Z,80.62
2023-01-13T06:21:28.410Z,80.41
2023-01-13T06:22:28.410Z,80.31
2023-01-13T06:23:28.385Z,80.31
2023-01-13T06:24:28.362Z,80.21
2023-01-13T06:25:28.381Z,80.21
2023-01-13T06:26:28.352Z,80.41
2023-01-13T06:27:28.331Z,80.31
2023-01-13T06:28:28.324Z,80.31
2023-01-13T06:29:28.321Z,80.10
2023-01-13T06:30:28.291Z,79.90
2023-01-13T06:31:28.306Z,80.10
2023-01-13T06:32:28.272Z,80.10
2023-01-13T06:33:28.274Z,79.90
2023-01-13T06:34:28.247Z,79.90
2023-01-13T06:35:28.216Z,80.00
2023-01-13T06:36:28.213Z,79.90
2023-01-13T06:37:28.206Z,79.69
2023-01-13T06:38:28.171Z,79.69
2023-01-13T06:39:28.184Z,80.00
2023-01-13T06:40:28.161Z,79.69
2023-01-13T06:41:28.153Z,79.28
2023-01-13T06:42:28.139Z,79.49
2023-01-13T06:43:28.111Z,79.18
2023-01-13T06:44:28.104Z,79.28
2023-01-13T06:45:28.093Z,78.97
2023-01-13T06:46:28.112Z,79.08
2023-01-13T06:47:28.068Z,79.18
2023-01-13T06:48:28.041Z,79.49
2023-01-13T06:49:28.079Z,79.80
2023-01-13T06:50:28.012Z,79.80
2023-01-13T06:51:28.033Z,79.69
2023-01-13T06:52:28.002Z,79.69
2023-01-13T06:53:27.988Z,79.59
2023-01-13T06:54:27.979Z,79.69
2023-01-13T06:55:27.954Z,79.69
2023-01-13T06:56:27.983Z,79.18
2023-01-13T06:57:27.925Z,79.18
2023-01-13T06:58:27.943Z,78.97
2023-01-13T06:59:27.907Z,79.18
2023-01-13T07:00:27.918Z,79.08
2023-01-13T07:01:27.970Z,79.08
2023-01-13T07:02:27.921Z,78.97
2023-01-13T07:03:27.855Z,78.97
2023-01-13T07:04:27.839Z,79.08
2023-01-13T07:05:27.829Z,79.18
2023-01-13T07:06:27.813Z,78.91
2023-01-13T07:07:27.796Z,79.22
2023-01-13T07:08:27.787Z,79.22
2023-01-13T07:09:27.790Z,79.01
2023-01-13T07:10:27.760Z,78.91
2023-01-13T07:11:27.759Z,78.81
2023-01-13T07:12:27.737Z,78.70
2023-01-13T07:13:27.727Z,78.70
2023-01-13T07:14:27.717Z,78.46
2023-01-13T07:15:27.686Z,78.56
2023-01-13T07:16:27.774Z,79.01
2023-01-13T07:17:27.693Z,78.60
2023-01-13T07:18:27.690Z,78.81
2023-01-13T07:19:27.645Z,78.50
2023-01-13T07:20:27.638Z,78.39
2023-01-13T07:21:27.605Z,78.09
2023-01-13T07:22:27.628Z,78.29
2023-01-13T07:23:27.612Z,78.29
2023-01-13T07:24:27.591Z,78.19
2023-01-13T07:25:27.556Z,78.50
2023-01-13T07:26:27.557Z,78.39
2023-01-13T07:27:27.540Z,78.09
2023-01-13T07:28:27.520Z,78.09
2023-01-13T07:29:27.525Z,78.29
2023-01-13T07:30:27.505Z,78.29
2023-01-13T07:31:27.509Z,78.09
2023-01-13T07:32:27.491Z,78.33
2023-01-13T07:33:27.448Z,78.12
2023-01-13T07:34:27.460Z,77.81
2023-01-13T07:35:27.488Z,77.81
2023-01-13T07:36:27.427Z,78.33
2023-01-13T07:37:27.419Z,78.12
2023-01-13T07:38:27.395Z,78.02
2023-01-13T07:39:27.368Z,78.23
2023-01-13T07:40:27.383Z,78.12
2023-01-13T07:41:27.362Z,78.02
2023-01-13T07:42:27.338Z,77.71
2023-01-13T07:43:27.318Z,77.71
2023-01-13T07:44:27.321Z,78.02
2023-01-13T07:45:27.321Z,77.92
2023-01-13T07:46:27.291Z,78.02
2023-01-13T07:47:27.267Z,77.92
2023-01-13T07:48:27.267Z,78.02
2023-01-13T07:49:27.287Z,78.02
2023-01-13T07:50:27.312Z,77.81
2023-01-13T07:51:27.214Z,77.81
2023-01-13T07:52:27.221Z,77.92
2023-01-13T07:53:27.181Z,77.71
2023-01-13T07:54:39.605Z,78.02
2023-01-13T07:55:28.163Z,77.71
2023-01-13T07:56:27.157Z,77.61
2023-01-13T07:57:27.149Z,77.71
2023-01-13T07:58:27.120Z,77.92
2023-01-13T07:59:27.124Z,77.71
2023-01-13T08:00:27.178Z,77.81
2023-01-13T08:01:27.184Z,77.71
2023-01-13T08:02:27.349Z,77.61
2023-01-13T08:03:27.063Z,77.81
2023-01-13T08:04:27.057Z,78.02
2023-01-13T08:05:27.044Z,77.61
2023-01-13T08:06:27.039Z,77.92
2023-01-13T08:07:27.023Z,77.92
2023-01-13T08:08:27.016Z,77.71
2023-01-13T08:09:26.971Z,77.81
2023-01-13T08:10:26.996Z,77.92
2023-01-13T08:11:26.940Z,77.68
2023-01-13T08:12:26.954Z,77.47
2023-01-13T08:13:26.950Z,77.47
2023-01-13T08:14:26.914Z,77.68
2023-01-13T08:15:26.924Z,77.98
2023-01-13T08:16:26.914Z,77.98
2023-01-13T08:17:26.875Z,77.61
2023-01-13T08:18:26.916Z,78.09
2023-01-13T08:19:26.858Z,77.88
2023-01-13T08:20:26.842Z,77.88
2023-01-13T08:21:26.826Z,77.98
2023-01-13T08:22:26.813Z,77.78
2023-01-13T08:23:26.799Z,77.68
2023-01-13T08:24:26.781Z,77.98
2023-01-13T08:25:26.923Z,77.68
2023-01-13T08:26:26.755Z,77.58
2023-01-13T08:27:26.730Z,77.58
2023-01-13T08:28:26.739Z,77.68
2023-01-13T08:29:26.738Z,77.58
2023-01-13T08:30:26.743Z,77.68
2023-01-13T08:31:26.679Z,77.47
2023-01-13T08:32:26.690Z,77.78
2023-01-13T08:33:26.688Z,77.68
2023-01-13T08:34:26.678Z,77.78
2023-01-13T08:35:26.636Z,77.78
2023-01-13T08:36:26.640Z,77.88
2023-01-13T08:37:26.635Z,77.98
2023-01-13T08:38:26.677Z,77.74
2023-01-13T08:39:26.587Z,77.84
2023-01-13T08:40:26.597Z,78.16
2023-01-13T08:41:26.547Z,77.95
2023-01-13T08:42:26.577Z,78.09
2023-01-13T08:43:26.528Z,78.56
2023-01-13T08:44:26.525Z,79.22
2023-01-13T08:45:26.494Z,79.28
2023-01-13T08:46:26.532Z,79.49
2023-01-13T08:47:26.484Z,80.00
2023-01-13T08:48:26.471Z,79.38
2023-01-13T08:49:26.468Z,80.00
2023-01-13T08:50:26.459Z,80.10
2023-01-13T08:51:26.417Z,80.00
2023-01-13T08:52:26.415Z,79.80
2023-01-13T08:53:26.392Z,80.00
2023-01-13T08:54:26.385Z,79.80
2023-01-13T08:55:26.369Z,80.10
2023-01-13T08:56:26.353Z,79.49
2023-01-13T08:57:26.398Z,80.00
2023-01-13T08:58:26.328Z,80.21
2023-01-13T08:59:26.337Z,80.62
2023-01-13T09:00:26.308Z,80.10
2023-01-13T09:01:26.407Z,79.90
2023-01-13T09:02:26.332Z,80.21
2023-01-13T09:03:26.263Z,80.00
2023-01-13T09:04:26.294Z,79.90
2023-01-13T09:05:26.239Z,79.90
2023-01-13T09:06:26.233Z,79.90
2023-01-13T09:07:26.218Z,79.90
2023-01-13T09:08:26.198Z,79.80
2023-01-13T09:09:26.192Z,79.90
2023-01-13T09:10:26.175Z,79.80
2023-01-13T09:11:26.161Z,80.00
2023-01-13T09:12:26.140Z,79.80
2023-01-13T09:13:26.164Z,80.10
2023-01-13T09:14:26.133Z,80.47
2023-01-13T09:15:26.246Z,79.86
2023-01-13T09:16:26.092Z,79.86
2023-01-13T09:17:26.079Z,80.37
2023-01-13T09:18:26.078Z,80.17
2023-01-13T09:19:26.050Z,79.75
2023-01-13T09:20:26.049Z,80.07
2023-01-13T09:21:26.030Z,79.45
2023-01-13T09:22:26.011Z,79.55
2023-01-13T09:23:26.010Z,79.31
2023-01-13T09:24:26.016Z,79.82
2023-01-13T09:25:25.988Z,79.82
2023-01-13T09:26:25.980Z,79.41
2023-01-13T09:27:25.953Z,79.52
2023-01-13T09:28:25.946Z,79.72
2023-01-13T09:29:25.929Z,80.23
2023-01-13T09:30:25.915Z,80.54
2023-01-13T09:31:25.931Z,81.05
2023-01-13T09:32:25.907Z,80.95
2023-01-13T09:33:25.868Z,81.77
2023-01-13T09:34:25.883Z,82.42
2023-01-13T09:35:25.847Z,82.53
2023-01-13T09:36:25.828Z,82.22
2023-01-13T09:37:25.803Z,82.53
2023-01-13T09:38:25.803Z,81.91
2023-01-13T09:39:25.796Z,82.73
2023-01-13T09:40:25.785Z,82.12
2023-01-13T09:41:25.773Z,82.12
2023-01-13T09:42:25.751Z,82.12
2023-01-13T09:43:25.747Z,82.63
2023-01-13T09:44:25.727Z,82.73
2023-01-13T09:45:25.720Z,83.65
2023-01-13T09:46:25.708Z,84.37
2023-01-13T09:47:25.686Z,84.99
2023-01-13T10:03:46.439Z,91.37
2023-01-13T10:04:46.368Z,91.78
2023-01-13T10:05:46.337Z,92.19
2023-01-13T10:06:46.313Z,92.64
2023-01-13T10:07:46.312Z,92.95
2023-01-13T10:08:46.299Z,93.26
2023-01-13T10:09:46.297Z,93.46
2023-01-13T10:10:46.327Z,93.67
2023-01-13T10:11:46.256Z,93.46
2023-01-13T10:12:46.248Z,93.57
2023-01-13T10:13:46.238Z,93.87
2023-01-13T10:14:46.208Z,93.36
2023-01-13T10:15:46.229Z,93.20
2023-01-13T10:16:46.212Z,93.30
2023-01-13T10:17:46.207Z,93.40
2023-01-13T10:18:46.165Z,93.30
2023-01-13T10:19:46.135Z,93.40
2023-01-13T10:20:46.146Z,93.51
2023-01-13T10:21:46.118Z,94.07
2023-01-13T10:22:46.114Z,94.27
2023-01-13T10:23:46.087Z,94.37
2023-01-13T10:24:46.080Z,94.17
2023-01-13T10:25:46.128Z,94.27
2023-01-13T10:26:46.058Z,94.27
2023-01-13T10:27:46.028Z,94.48
2023-01-13T10:28:46.038Z,94.58
2023-01-13T10:29:46.039Z,94.58
2023-01-13T10:30:46.008Z,94.78
2023-01-13T10:31:46.002Z,94.99
2023-01-13T10:32:45.973Z,95.09
2023-01-13T10:33:45.998Z,95.09
2023-01-13T10:34:45.964Z,95.09
2023-01-13T10:35:45.963Z,95.24
2023-01-13T10:36:45.921Z,95.24
2023-01-13T10:37:45.896Z,95.34
2023-01-13T10:38:45.895Z,95.45
2023-01-13T10:39:45.880Z,95.55
2023-01-13T10:40:45.881Z,95.55
2023-01-13T10:41:45.881Z,95.65
2023-01-13T10:42:45.908Z,95.65
2023-01-13T10:43:45.826Z,95.65
2023-01-13T10:44:45.801Z,95.65
2023-01-13T10:45:45.791Z,95.65
2023-01-13T10:46:45.840Z,95.71
2023-01-13T10:47:45.769Z,95.75
2023-01-13T10:48:45.764Z,95.86
2023-01-13T10:49:45.782Z,95.81
2023-01-13T10:50:45.751Z,95.86
2023-01-13T10:51:45.719Z,95.81
2023-01-13T10:52:45.709Z,95.81
2023-01-13T10:53:45.688Z,95.81
2023-01-13T10:54:45.717Z,95.81
2023-01-13T10:55:45.675Z,95.92
2023-01-13T10:56:45.686Z,95.86
2023-01-13T10:57:45.640Z,95.65
2023-01-13T10:58:45.634Z,95.65
2023-01-13T10:59:45.620Z,95.61
2023-01-13T11:00:45.615Z,95.34
2023-01-13T11:01:45.729Z,95.45
2023-01-13T11:02:45.569Z,95.24
2023-01-13T11:03:45.548Z,95.30
2023-01-13T11:04:45.591Z,95.30
2023-01-13T11:05:45.532Z,95.30
2023-01-13T11:06:45.542Z,95.20
2023-01-13T11:07:45.518Z,95.09
2023-01-13T11:08:45.523Z,94.95
2023-01-13T11:09:45.472Z,94.95
2023-01-13T11:10:45.469Z,94.74
2023-01-13T11:11:45.495Z,94.54
2023-01-13T11:12:45.450Z,94.12
2023-01-13T11:13:45.421Z,93.82
2023-01-13T11:14:45.420Z,93.82
2023-01-13T11:15:45.468Z,94.02
2023-01-13T11:16:53.142Z,93.77
2023-01-13T11:17:46.386Z,93.77
2023-01-13T11:18:45.356Z,93.68
2023-01-13T11:19:45.349Z,91.94
2023-01-13T11:20:45.374Z,92.46
2023-01-13T11:21:45.313Z,92.04
2023-01-13T11:22:45.343Z,91.88
2023-01-13T11:23:45.289Z,92.08
2023-01-13T11:24:45.301Z,92.19
2023-01-13T11:25:45.274Z,92.50
2023-01-13T11:26:45.273Z,92.23
2023-01-13T11:27:45.244Z,92.13
2023-01-13T11:28:45.254Z,92.74
2023-01-13T11:29:45.223Z,92.95
2023-01-13T11:30:45.204Z,93.05
2023-01-13T11:31:45.396Z,93.12
2023-01-13T11:32:45.200Z,92.70
2023-01-13T11:33:45.191Z,92.50
2023-01-13T11:34:45.161Z,92.29
2023-01-13T11:35:45.132Z,92.08
2023-01-13T11:36:45.116Z,92.13
2023-01-13T11:37:45.347Z,91.51
2023-01-13T11:38:45.096Z,92.03
2023-01-13T11:39:45.094Z,92.44
2023-01-13T11:40:45.066Z,92.80
2023-01-13T11:41:45.088Z,92.80
2023-01-13T11:42:45.085Z,92.19
2023-01-13T11:43:45.032Z,92.46
2023-01-13T11:44:45.024Z,91.94
2023-01-13T11:45:45.029Z,91.69
2023-01-13T11:46:45.027Z,91.18
2023-01-13T11:47:45.005Z,90.91
2023-01-13T11:48:44.986Z,91.33
2023-01-13T11:49:44.970Z,91.53
2023-01-13T11:50:44.934Z,91.57
2023-01-13T11:51:44.946Z,91.67
2023-01-13T11:52:44.964Z,92.08
2023-01-13T11:53:44.887Z,91.61
2023-01-13T11:54:44.893Z,91.88
2023-01-13T11:55:44.885Z,92.19
2023-01-13T11:56:44.875Z,91.78
2023-01-13T11:57:44.886Z,92.08
2023-01-13T11:58:50.682Z,92.19
2023-01-13T11:59:45.841Z,92.08
2023-01-13T12:00:44.837Z,92.40
2023-01-13T12:01:44.860Z,92.29
2023-01-13T12:02:44.804Z,90.85
2023-01-13T12:03:45.016Z,90.95
2023-01-13T12:04:44.780Z,91.06
2023-01-13T12:05:44.764Z,90.44
2023-01-13T12:06:44.787Z,90.55
2023-01-13T12:07:44.717Z,90.44
2023-01-13T12:08:44.734Z,90.69
2023-01-13T12:09:44.714Z,91.06
2023-01-13T12:10:44.738Z,91.37
2023-01-13T12:11:44.733Z,91.47
2023-01-13T12:12:44.658Z,91.06
2023-01-13T12:13:44.658Z,90.69
2023-01-13T12:14:44.624Z,90.95
2023-01-13T12:15:44.619Z,91.06
2023-01-13T12:16:44.634Z,90.65
2023-01-13T12:17:44.611Z,89.97
2023-01-13T12:18:44.591Z,90.14
2023-01-13T12:19:44.566Z,89.83
2023-01-13T12:20:44.547Z,89.93
2023-01-13T12:21:44.584Z,89.31
2023-01-13T12:22:44.530Z,89.83
2023-01-13T12:23:44.532Z,89.62
2023-01-13T12:24:44.504Z,89.83
2023-01-13T12:25:44.474Z,88.70
2023-01-13T12:26:44.477Z,88.18
2023-01-13T12:27:47.138Z,88.29
2023-01-13T12:28:44.514Z,89.21
2023-01-13T12:29:44.420Z,89.21
2023-01-13T12:30:44.438Z,89.11
2023-01-13T12:31:44.439Z,88.49
2023-01-13T12:32:44.399Z,87.98
2023-01-13T12:33:44.404Z,87.88
2023-01-13T12:34:44.374Z,87.98
2023-01-13T12:35:44.385Z,87.77
2023-01-13T12:36:44.342Z,87.98
2023-01-13T12:37:44.331Z,88.59
2023-01-13T12:38:44.323Z,88.49
2023-01-13T12:39:44.321Z,88.39
2023-01-13T12:40:44.289Z,88.74
2023-01-13T12:41:44.270Z,89.11
2023-01-13T12:42:44.272Z,89.42
2023-01-13T12:43:44.241Z,88.95
2023-01-13T12:44:44.274Z,89.31
2023-01-13T12:45:44.315Z,89.25
2023-01-13T12:46:44.212Z,88.33
2023-01-13T12:47:44.219Z,88.84
2023-01-13T12:48:44.181Z,89.62
2023-01-13T12:49:44.172Z,89.11
2023-01-13T12:50:44.169Z,88.39
2023-01-13T12:51:44.156Z,88.29
2023-01-13T12:52:44.144Z,88.02
2023-01-13T12:53:44.106Z,88.18
2023-01-13T12:54:44.130Z,88.18
2023-01-13T12:55:44.094Z,87.57
2023-01-13T12:56:44.085Z,87.77
2023-01-13T12:57:44.068Z,86.95
2023-01-13T12:58:44.053Z,85.31
2023-01-13T12:59:44.044Z,85.82
2023-01-13T13:00:44.132Z,86.13
2023-01-13T13:01:44.342Z,86.24
2023-01-13T13:02:44.025Z,86.65
2023-01-13T13:03:43.994Z,86.13
2023-01-13T13:04:44.599Z,86.44
2023-01-13T13:05:43.957Z,86.85
2023-01-13T13:06:43.970Z,87.05
2023-01-13T13:07:43.926Z,87.20
2023-01-13T13:08:43.947Z,86.58
2023-01-13T13:09:43.918Z,86.68
2023-01-13T13:10:43.931Z,86.85
2023-01-13T13:11:43.911Z,86.85
2023-01-13T13:12:43.881Z,86.65
2023-01-13T13:13:43.875Z,86.24
2023-01-13T13:14:43.868Z,86.54
2023-01-13T13:15:43.862Z,86.75
2023-01-13T13:16:43.817Z,86.24
2023-01-13T13:17:43.784Z,86.33
2023-01-13T13:18:43.796Z,86.03
2023-01-13T13:19:43.827Z,85.82
2023-01-13T13:20:43.781Z,86.03